sensor_id;sensor_type;location;lat;lon;timestamp;P1;durP1;ratioP1;P2;durP2;ratioP2
55316;SDS011;41178;48.956;8.130;2023-07-09T00:02:38;5.95;;;3.22;;
55316;SDS011;41178;48.956;8.130;2023-07-09T00:07:40;4.95;;;3.40;;
55316;SDS011;41178;48.956;8.130;2023-07-09T00:12:43;5.75;;;3.45;;
55316;SDS011;41178;48.956;8.130;2023-07-09T00:17:45;4.78;;;3.10;;
55316;SDS011;41178;48.956;8.130;2023-07-09T00:22:47;6.18;;;3.00;;
55316;SDS011;41178;48.956;8.130;2023-07-09T00:27:54;4.43;;;2.92;;
55316;SDS011;41178;48.956;8.130;2023-07-09T00:32:55;6.55;;;3.35;;
55316;SDS011;41178;48.956;8.130;2023-07-09T00:37:57;6.50;;;3.40;;
55316;SDS011;41178;48.956;8.130;2023-07-09T00:43:02;4.43;;;3.20;;
55316;SDS011;41178;48.956;8.130;2023-07-09T00:48:04;5.43;;;3.40;;
55316;SDS011;41178;48.956;8.130;2023-07-09T00:58:21;6.13;;;3.60;;
55316;SDS011;41178;48.956;8.130;2023-07-09T01:08:34;4.90;;;3.25;;
55316;SDS011;41178;48.956;8.130;2023-07-09T01:13:36;5.00;;;3.22;;
55316;SDS011;41178;48.956;8.130;2023-07-09T01:18:41;6.38;;;3.53;;
55316;SDS011;41178;48.956;8.130;2023-07-09T01:23:43;9.00;;;3.30;;
55316;SDS011;41178;48.956;8.130;2023-07-09T01:28:47;7.25;;;3.78;;
55316;SDS011;41178;48.956;8.130;2023-07-09T01:33:50;4.55;;;3.33;;
55316;SDS011;41178;48.956;8.130;2023-07-09T01:38:52;4.97;;;3.28;;
55316;SDS011;41178;48.956;8.130;2023-07-09T01:43:57;4.93;;;3.45;;
55316;SDS011;41178;48.956;8.130;2023-07-09T01:49:01;5.53;;;3.38;;
55316;SDS011;41178;48.956;8.130;2023-07-09T01:54:03;6.22;;;3.30;;
55316;SDS011;41178;48.956;8.130;2023-07-09T01:59:05;7.07;;;4.47;;
55316;SDS011;41178;48.956;8.130;2023-07-09T02:04:08;6.70;;;3.65;;
55316;SDS011;41178;48.956;8.130;2023-07-09T02:09:10;6.20;;;3.78;;
55316;SDS011;41178;48.956;8.130;2023-07-09T02:14:12;7.72;;;4.35;;
55316;SDS011;41178;48.956;8.130;2023-07-09T02:19:13;5.82;;;3.80;;
55316;SDS011;41178;48.956;8.130;2023-07-09T02:24:15;8.02;;;3.85;;
55316;SDS011;41178;48.956;8.130;2023-07-09T02:29:17;7.13;;;3.58;;
55316;SDS011;41178;48.956;8.130;2023-07-09T02:34:19;4.35;;;3.50;;
55316;SDS011;41178;48.956;8.130;2023-07-09T02:39:22;6.00;;;3.35;;
55316;SDS011;41178;48.956;8.130;2023-07-09T02:44:24;5.00;;;3.58;;
55316;SDS011;41178;48.956;8.130;2023-07-09T02:49:26;5.22;;;3.20;;
55316;SDS011;41178;48.956;8.130;2023-07-09T02:54:28;5.13;;;3.08;;
55316;SDS011;41178;48.956;8.130;2023-07-09T02:59:30;11.23;;;3.65;;
55316;SDS011;41178;48.956;8.130;2023-07-09T03:04:32;6.03;;;3.97;;
55316;SDS011;41178;48.956;8.130;2023-07-09T03:09:34;7.60;;;3.92;;
55316;SDS011;41178;48.956;8.130;2023-07-09T03:14:36;7.13;;;3.45;;
55316;SDS011;41178;48.956;8.130;2023-07-09T03:19:38;6.97;;;3.63;;
55316;SDS011;41178;48.956;8.130;2023-07-09T03:24:40;7.57;;;3.85;;
55316;SDS011;41178;48.956;8.130;2023-07-09T03:29:42;7.07;;;3.83;;
55316;SDS011;41178;48.956;8.130;2023-07-09T03:34:43;4.97;;;3.67;;
55316;SDS011;41178;48.956;8.130;2023-07-09T03:39:45;4.75;;;3.17;;
55316;SDS011;41178;48.956;8.130;2023-07-09T03:44:47;5.95;;;3.42;;
55316;SDS011;41178;48.956;8.130;2023-07-09T03:49:49;4.45;;;2.97;;
55316;SDS011;41178;48.956;8.130;2023-07-09T03:54:51;7.10;;;3.72;;
55316;SDS011;41178;48.956;8.130;2023-07-09T03:59:53;6.22;;;3.78;;
55316;SDS011;41178;48.956;8.130;2023-07-09T04:04:54;5.95;;;3.63;;
55316;SDS011;41178;48.956;8.130;2023-07-09T04:09:56;5.07;;;3.53;;
55316;SDS011;41178;48.956;8.130;2023-07-09T04:14:58;5.50;;;3.90;;
55316;SDS011;41178;48.956;8.130;2023-07-09T04:20:00;6.68;;;3.75;;
55316;SDS011;41178;48.956;8.130;2023-07-09T04:25:03;5.05;;;3.40;;
55316;SDS011;41178;48.956;8.130;2023-07-09T04:30:10;6.43;;;4.00;;
55316;SDS011;41178;48.956;8.130;2023-07-09T04:35:14;6.63;;;4.20;;
55316;SDS011;41178;48.956;8.130;2023-07-09T04:40:17;6.72;;;3.33;;
55316;SDS011;41178;48.956;8.130;2023-07-09T04:45:19;5.63;;;3.47;;
55316;SDS011;41178;48.956;8.130;2023-07-09T04:50:21;9.20;;;3.65;;
55316;SDS011;41178;48.956;8.130;2023-07-09T04:55:23;5.38;;;3.67;;
55316;SDS011;41178;48.956;8.130;2023-07-09T05:00:25;7.50;;;3.45;;
55316;SDS011;41178;48.956;8.130;2023-07-09T05:05:26;6.07;;;3.38;;
55316;SDS011;41178;48.956;8.130;2023-07-09T05:10:28;4.88;;;3.15;;
55316;SDS011;41178;48.956;8.130;2023-07-09T05:15:30;4.82;;;3.08;;
55316;SDS011;41178;48.956;8.130;2023-07-09T05:20:32;5.13;;;3.58;;
55316;SDS011;41178;48.956;8.130;2023-07-09T05:25:33;5.03;;;3.80;;
55316;SDS011;41178;48.956;8.130;2023-07-09T05:30:35;4.60;;;3.47;;
55316;SDS011;41178;48.956;8.130;2023-07-09T05:35:37;6.13;;;3.67;;
55316;SDS011;41178;48.956;8.130;2023-07-09T05:40:39;6.00;;;3.40;;
55316;SDS011;41178;48.956;8.130;2023-07-09T05:45:41;6.18;;;3.40;;
55316;SDS011;41178;48.956;8.130;2023-07-09T05:50:43;9.40;;;4.20;;
55316;SDS011;41178;48.956;8.130;2023-07-09T05:55:45;5.15;;;3.75;;
55316;SDS011;41178;48.956;8.130;2023-07-09T06:00:49;6.18;;;3.55;;
55316;SDS011;41178;48.956;8.130;2023-07-09T06:05:55;5.30;;;3.67;;
55316;SDS011;41178;48.956;8.130;2023-07-09T06:10:59;8.95;;;3.67;;
55316;SDS011;41178;48.956;8.130;2023-07-09T06:16:03;6.93;;;3.65;;
55316;SDS011;41178;48.956;8.130;2023-07-09T06:21:05;9.75;;;4.00;;
55316;SDS011;41178;48.956;8.130;2023-07-09T06:26:08;7.35;;;4.05;;
55316;SDS011;41178;48.956;8.130;2023-07-09T06:31:10;6.28;;;3.80;;
55316;SDS011;41178;48.956;8.130;2023-07-09T06:36:12;5.20;;;3.78;;
55316;SDS011;41178;48.956;8.130;2023-07-09T06:41:14;5.68;;;4.00;;
55316;SDS011;41178;48.956;8.130;2023-07-09T06:46:18;5.45;;;3.30;;
55316;SDS011;41178;48.956;8.130;2023-07-09T06:51:21;5.50;;;3.58;;
55316;SDS011;41178;48.956;8.130;2023-07-09T06:56:22;5.50;;;3.70;;
55316;SDS011;41178;48.956;8.130;2023-07-09T07:01:24;6.45;;;3.78;;
55316;SDS011;41178;48.956;8.130;2023-07-09T07:06:26;6.45;;;3.85;;
55316;SDS011;41178;48.956;8.130;2023-07-09T07:11:28;7.60;;;3.83;;
55316;SDS011;41178;48.956;8.130;2023-07-09T07:16:31;5.15;;;3.92;;
55316;SDS011;41178;48.956;8.130;2023-07-09T07:21:33;5.97;;;3.95;;
55316;SDS011;41178;48.956;8.130;2023-07-09T07:26:36;6.10;;;3.75;;
55316;SDS011;41178;48.956;8.130;2023-07-09T07:31:37;7.80;;;3.70;;
55316;SDS011;41178;48.956;8.130;2023-07-09T07:36:39;8.00;;;3.78;;
55316;SDS011;41178;48.956;8.130;2023-07-09T07:41:44;6.35;;;3.83;;
55316;SDS011;41178;48.956;8.130;2023-07-09T07:46:46;5.72;;;3.95;;
55316;SDS011;41178;48.956;8.130;2023-07-09T07:51:47;5.93;;;3.88;;
55316;SDS011;41178;48.956;8.130;2023-07-09T07:56:49;5.85;;;3.92;;
55316;SDS011;41178;48.956;8.130;2023-07-09T08:01:51;4.90;;;3.38;;
55316;SDS011;41178;48.956;8.130;2023-07-09T08:06:53;5.55;;;3.60;;
55316;SDS011;41178;48.956;8.130;2023-07-09T08:11:55;5.68;;;3.60;;
55316;SDS011;41178;48.956;8.130;2023-07-09T08:16:57;4.72;;;3.38;;
55316;SDS011;41178;48.956;8.130;2023-07-09T08:21:59;5.10;;;3.90;;
55316;SDS011;41178;48.956;8.130;2023-07-09T08:27:01;3.72;;;3.33;;
55316;SDS011;41178;48.956;8.130;2023-07-09T08:32:03;5.32;;;3.53;;
55316;SDS011;41178;48.956;8.130;2023-07-09T08:37:06;5.50;;;3.47;;
55316;SDS011;41178;48.956;8.130;2023-07-09T08:42:10;4.85;;;3.35;;
55316;SDS011;41178;48.956;8.130;2023-07-09T08:52:42;4.28;;;3.40;;
55316;SDS011;41178;48.956;8.130;2023-07-09T08:57:50;6.50;;;3.63;;
55316;SDS011;41178;48.956;8.130;2023-07-09T09:13:42;6.22;;;2.95;;
55316;SDS011;41178;48.956;8.130;2023-07-09T09:18:47;4.18;;;2.80;;
55316;SDS011;41178;48.956;8.130;2023-07-09T09:23:51;3.88;;;2.92;;
55316;SDS011;41178;48.956;8.130;2023-07-09T09:28:56;5.90;;;2.85;;
55316;SDS011;41178;48.956;8.130;2023-07-09T09:33:57;4.55;;;2.80;;
55316;SDS011;41178;48.956;8.130;2023-07-09T09:39:01;5.30;;;2.95;;
55316;SDS011;41178;48.956;8.130;2023-07-09T09:44:03;6.85;;;3.60;;
55316;SDS011;41178;48.956;8.130;2023-07-09T09:49:08;3.75;;;2.85;;
55316;SDS011;41178;48.956;8.130;2023-07-09T09:54:23;4.05;;;2.42;;
55316;SDS011;41178;48.956;8.130;2023-07-09T09:59:32;4.00;;;2.70;;
55316;SDS011;41178;48.956;8.130;2023-07-09T10:04:38;4.00;;;2.75;;
55316;SDS011;41178;48.956;8.130;2023-07-09T10:09:53;6.38;;;3.00;;
55316;SDS011;41178;48.956;8.130;2023-07-09T10:25:48;5.10;;;2.63;;
55316;SDS011;41178;48.956;8.130;2023-07-09T10:41:27;4.55;;;2.80;;
55316;SDS011;41178;48.956;8.130;2023-07-09T10:46:31;4.07;;;2.95;;
55316;SDS011;41178;48.956;8.130;2023-07-09T10:57:30;4.40;;;2.83;;
55316;SDS011;41178;48.956;8.130;2023-07-09T11:06:26;4.60;;;2.85;;
55316;SDS011;41178;48.956;8.130;2023-07-09T11:11:43;4.07;;;2.83;;
55316;SDS011;41178;48.956;8.130;2023-07-09T11:16:50;4.55;;;3.00;;
55316;SDS011;41178;48.956;8.130;2023-07-09T11:27:01;6.72;;;2.95;;
55316;SDS011;41178;48.956;8.130;2023-07-09T11:32:07;7.40;;;3.03;;
55316;SDS011;41178;48.956;8.130;2023-07-09T11:37:11;5.85;;;3.15;;
55316;SDS011;41178;48.956;8.130;2023-07-09T11:42:33;3.58;;;2.90;;
55316;SDS011;41178;48.956;8.130;2023-07-09T11:58:36;3.65;;;2.65;;
55316;SDS011;41178;48.956;8.130;2023-07-09T12:03:38;4.68;;;2.72;;
55316;SDS011;41178;48.956;8.130;2023-07-09T12:08:44;4.47;;;3.08;;
55316;SDS011;41178;48.956;8.130;2023-07-09T12:13:47;5.22;;;2.80;;
55316;SDS011;41178;48.956;8.130;2023-07-09T12:18:49;3.47;;;2.60;;
55316;SDS011;41178;48.956;8.130;2023-07-09T12:23:52;3.83;;;2.50;;
55316;SDS011;41178;48.956;8.130;2023-07-09T12:28:56;4.05;;;2.67;;
55316;SDS011;41178;48.956;8.130;2023-07-09T12:33:59;4.07;;;2.70;;
55316;SDS011;41178;48.956;8.130;2023-07-09T12:39:01;5.22;;;2.90;;
55316;SDS011;41178;48.956;8.130;2023-07-09T12:44:05;5.45;;;3.25;;
55316;SDS011;41178;48.956;8.130;2023-07-09T12:49:22;4.13;;;2.58;;
55316;SDS011;41178;48.956;8.130;2023-07-09T12:54:31;4.43;;;2.85;;
55316;SDS011;41178;48.956;8.130;2023-07-09T12:59:39;5.72;;;2.80;;
55316;SDS011;41178;48.956;8.130;2023-07-09T13:04:42;3.78;;;3.00;;
55316;SDS011;41178;48.956;8.130;2023-07-09T13:09:50;4.85;;;2.60;;
55316;SDS011;41178;48.956;8.130;2023-07-09T13:14:53;4.28;;;2.25;;
55316;SDS011;41178;48.956;8.130;2023-07-09T13:19:59;2.53;;;2.10;;
55316;SDS011;41178;48.956;8.130;2023-07-09T13:25:01;4.03;;;2.70;;
55316;SDS011;41178;48.956;8.130;2023-07-09T13:30:03;4.57;;;2.92;;
55316;SDS011;41178;48.956;8.130;2023-07-09T13:35:15;3.90;;;2.65;;
55316;SDS011;41178;48.956;8.130;2023-07-09T13:40:19;3.60;;;2.65;;
55316;SDS011;41178;48.956;8.130;2023-07-09T13:45:22;9.10;;;2.50;;
55316;SDS011;41178;48.956;8.130;2023-07-09T13:50:26;4.45;;;2.72;;
55316;SDS011;41178;48.956;8.130;2023-07-09T13:55:28;5.38;;;2.97;;
55316;SDS011;41178;48.956;8.130;2023-07-09T14:00:30;4.50;;;2.90;;
55316;SDS011;41178;48.956;8.130;2023-07-09T14:05:31;6.28;;;2.92;;
55316;SDS011;41178;48.956;8.130;2023-07-09T14:10:33;4.68;;;2.58;;
55316;SDS011;41178;48.956;8.130;2023-07-09T14:15:35;3.80;;;2.75;;
55316;SDS011;41178;48.956;8.130;2023-07-09T14:20:37;4.13;;;2.50;;
55316;SDS011;41178;48.956;8.130;2023-07-09T14:25:39;4.03;;;2.78;;
55316;SDS011;41178;48.956;8.130;2023-07-09T14:30:41;5.03;;;3.10;;
55316;SDS011;41178;48.956;8.130;2023-07-09T14:35:46;4.93;;;2.60;;
55316;SDS011;41178;48.956;8.130;2023-07-09T14:40:49;6.03;;;2.78;;
55316;SDS011;41178;48.956;8.130;2023-07-09T14:45:53;4.88;;;2.60;;
55316;SDS011;41178;48.956;8.130;2023-07-09T14:50:55;4.95;;;2.83;;
55316;SDS011;41178;48.956;8.130;2023-07-09T14:55:57;5.65;;;3.10;;
55316;SDS011;41178;48.956;8.130;2023-07-09T15:00:58;3.78;;;3.10;;
55316;SDS011;41178;48.956;8.130;2023-07-09T15:06:00;3.67;;;2.60;;
55316;SDS011;41178;48.956;8.130;2023-07-09T15:11:04;3.88;;;2.80;;
55316;SDS011;41178;48.956;8.130;2023-07-09T15:16:06;4.80;;;3.05;;
55316;SDS011;41178;48.956;8.130;2023-07-09T15:21:08;5.65;;;2.97;;
55316;SDS011;41178;48.956;8.130;2023-07-09T15:26:14;7.57;;;3.30;;
55316;SDS011;41178;48.956;8.130;2023-07-09T15:31:17;4.00;;;2.60;;
55316;SDS011;41178;48.956;8.130;2023-07-09T15:36:19;5.95;;;3.00;;
55316;SDS011;41178;48.956;8.130;2023-07-09T15:41:21;4.43;;;2.72;;
55316;SDS011;41178;48.956;8.130;2023-07-09T15:46:23;5.05;;;2.95;;
55316;SDS011;41178;48.956;8.130;2023-07-09T15:51:24;5.30;;;2.53;;
55316;SDS011;41178;48.956;8.130;2023-07-09T15:56:27;5.05;;;3.00;;
55316;SDS011;41178;48.956;8.130;2023-07-09T16:01:31;4.20;;;2.90;;
55316;SDS011;41178;48.956;8.130;2023-07-09T16:06:33;4.75;;;2.85;;
55316;SDS011;41178;48.956;8.130;2023-07-09T16:11:41;5.85;;;3.15;;
55316;SDS011;41178;48.956;8.130;2023-07-09T16:16:47;4.57;;;2.72;;
55316;SDS011;41178;48.956;8.130;2023-07-09T16:21:56;6.05;;;3.00;;
55316;SDS011;41178;48.956;8.130;2023-07-09T16:27:02;4.07;;;3.00;;
55316;SDS011;41178;48.956;8.130;2023-07-09T16:32:05;3.80;;;2.50;;
55316;SDS011;41178;48.956;8.130;2023-07-09T16:37:10;5.93;;;2.88;;
55316;SDS011;41178;48.956;8.130;2023-07-09T16:42:18;4.10;;;2.83;;
55316;SDS011;41178;48.956;8.130;2023-07-09T16:47:20;6.13;;;2.80;;
55316;SDS011;41178;48.956;8.130;2023-07-09T16:52:24;4.68;;;2.97;;
55316;SDS011;41178;48.956;8.130;2023-07-09T16:57:29;4.18;;;2.70;;
55316;SDS011;41178;48.956;8.130;2023-07-09T17:02:33;3.75;;;2.53;;
55316;SDS011;41178;48.956;8.130;2023-07-09T17:07:35;5.78;;;2.65;;
55316;SDS011;41178;48.956;8.130;2023-07-09T17:12:37;4.32;;;2.70;;
55316;SDS011;41178;48.956;8.130;2023-07-09T17:17:38;4.85;;;2.85;;
55316;SDS011;41178;48.956;8.130;2023-07-09T17:22:40;4.68;;;2.90;;
55316;SDS011;41178;48.956;8.130;2023-07-09T17:27:42;4.03;;;2.80;;
55316;SDS011;41178;48.956;8.130;2023-07-09T17:32:44;8.02;;;3.08;;
55316;SDS011;41178;48.956;8.130;2023-07-09T17:37:50;6.85;;;2.97;;
55316;SDS011;41178;48.956;8.130;2023-07-09T17:42:55;10.07;;;5.90;;
55316;SDS011;41178;48.956;8.130;2023-07-09T17:47:58;8.30;;;5.15;;
55316;SDS011;41178;48.956;8.130;2023-07-09T17:53:00;5.18;;;3.10;;
55316;SDS011;41178;48.956;8.130;2023-07-09T17:58:01;5.93;;;3.00;;
55316;SDS011;41178;48.956;8.130;2023-07-09T18:03:07;4.53;;;3.08;;
55316;SDS011;41178;48.956;8.130;2023-07-09T18:08:11;5.97;;;3.33;;
55316;SDS011;41178;48.956;8.130;2023-07-09T18:13:14;4.72;;;2.92;;
55316;SDS011;41178;48.956;8.130;2023-07-09T18:18:18;11.35;;;4.47;;
55316;SDS011;41178;48.956;8.130;2023-07-09T18:23:20;5.93;;;3.35;;
55316;SDS011;41178;48.956;8.130;2023-07-09T18:28:27;5.22;;;3.08;;
55316;SDS011;41178;48.956;8.130;2023-07-09T18:33:32;4.95;;;2.78;;
55316;SDS011;41178;48.956;8.130;2023-07-09T18:38:33;6.47;;;2.97;;
55316;SDS011;41178;48.956;8.130;2023-07-09T18:43:35;5.28;;;2.60;;
55316;SDS011;41178;48.956;8.130;2023-07-09T18:48:37;4.93;;;2.88;;
55316;SDS011;41178;48.956;8.130;2023-07-09T18:53:39;6.88;;;3.17;;
55316;SDS011;41178;48.956;8.130;2023-07-09T18:58:41;4.38;;;2.60;;
55316;SDS011;41178;48.956;8.130;2023-07-09T19:03:42;5.13;;;3.08;;
55316;SDS011;41178;48.956;8.130;2023-07-09T19:08:45;5.93;;;2.85;;
55316;SDS011;41178;48.956;8.130;2023-07-09T19:13:47;6.45;;;2.80;;
55316;SDS011;41178;48.956;8.130;2023-07-09T19:18:49;7.50;;;3.20;;
55316;SDS011;41178;48.956;8.130;2023-07-09T19:23:51;5.85;;;2.65;;
55316;SDS011;41178;48.956;8.130;2023-07-09T19:28:53;5.55;;;2.70;;
55316;SDS011;41178;48.956;8.130;2023-07-09T19:33:54;5.72;;;3.15;;
55316;SDS011;41178;48.956;8.130;2023-07-09T19:38:56;4.85;;;2.80;;
55316;SDS011;41178;48.956;8.130;2023-07-09T19:43:58;3.40;;;2.72;;
55316;SDS011;41178;48.956;8.130;2023-07-09T19:49:00;4.07;;;2.92;;
55316;SDS011;41178;48.956;8.130;2023-07-09T19:54:04;6.85;;;3.10;;
55316;SDS011;41178;48.956;8.130;2023-07-09T19:59:17;4.07;;;2.67;;
55316;SDS011;41178;48.956;8.130;2023-07-09T20:04:19;4.00;;;3.00;;
55316;SDS011;41178;48.956;8.130;2023-07-09T20:09:21;6.22;;;2.70;;
55316;SDS011;41178;48.956;8.130;2023-07-09T20:14:23;6.28;;;3.45;;
55316;SDS011;41178;48.956;8.130;2023-07-09T20:19:24;4.32;;;3.10;;
55316;SDS011;41178;48.956;8.130;2023-07-09T20:24:27;5.70;;;2.97;;
55316;SDS011;41178;48.956;8.130;2023-07-09T20:29:28;6.57;;;3.42;;
55316;SDS011;41178;48.956;8.130;2023-07-09T20:34:30;5.90;;;3.00;;
55316;SDS011;41178;48.956;8.130;2023-07-09T20:39:32;3.20;;;2.78;;
55316;SDS011;41178;48.956;8.130;2023-07-09T20:44:35;7.68;;;2.83;;
55316;SDS011;41178;48.956;8.130;2023-07-09T20:49:38;7.53;;;3.22;;
55316;SDS011;41178;48.956;8.130;2023-07-09T20:54:40;5.07;;;3.40;;
55316;SDS011;41178;48.956;8.130;2023-07-09T20:59:42;6.03;;;3.45;;
55316;SDS011;41178;48.956;8.130;2023-07-09T21:04:44;8.95;;;3.70;;
55316;SDS011;41178;48.956;8.130;2023-07-09T21:09:45;5.35;;;2.97;;
55316;SDS011;41178;48.956;8.130;2023-07-09T21:14:47;6.63;;;3.35;;
55316;SDS011;41178;48.956;8.130;2023-07-09T21:19:50;5.20;;;3.40;;
55316;SDS011;41178;48.956;8.130;2023-07-09T21:24:54;6.00;;;3.70;;
55316;SDS011;41178;48.956;8.130;2023-07-09T21:30:00;5.68;;;3.58;;
55316;SDS011;41178;48.956;8.130;2023-07-09T21:35:04;5.85;;;3.63;;
55316;SDS011;41178;48.956;8.130;2023-07-09T21:40:31;5.65;;;3.40;;
55316;SDS011;41178;48.956;8.130;2023-07-09T21:45:38;6.15;;;3.28;;
55316;SDS011;41178;48.956;8.130;2023-07-09T21:50:42;5.57;;;3.42;;
55316;SDS011;41178;48.956;8.130;2023-07-09T21:55:44;5.75;;;3.42;;
55316;SDS011;41178;48.956;8.130;2023-07-09T22:00:46;5.88;;;3.55;;
55316;SDS011;41178;48.956;8.130;2023-07-09T22:05:56;5.00;;;3.28;;
55316;SDS011;41178;48.956;8.130;2023-07-09T22:10:58;7.18;;;3.80;;
55316;SDS011;41178;48.956;8.130;2023-07-09T22:16:00;7.85;;;3.47;;
55316;SDS011;41178;48.956;8.130;2023-07-09T22:21:02;5.30;;;3.30;;
55316;SDS011;41178;48.956;8.130;2023-07-09T22:26:04;5.43;;;3.50;;
55316;SDS011;41178;48.956;8.130;2023-07-09T22:31:08;5.35;;;3.25;;
55316;SDS011;41178;48.956;8.130;2023-07-09T22:36:12;7.63;;;3.67;;
55316;SDS011;41178;48.956;8.130;2023-07-09T22:41:14;5.53;;;3.53;;
55316;SDS011;41178;48.956;8.130;2023-07-09T22:46:16;9.65;;;3.80;;
55316;SDS011;41178;48.956;8.130;2023-07-09T22:51:19;5.45;;;3.35;;
55316;SDS011;41178;48.956;8.130;2023-07-09T22:56:21;8.68;;;3.40;;
55316;SDS011;41178;48.956;8.130;2023-07-09T23:01:23;5.90;;;3.47;;
55316;SDS011;41178;48.956;8.130;2023-07-09T23:06:26;4.35;;;3.13;;
55316;SDS011;41178;48.956;8.130;2023-07-09T23:11:36;7.10;;;3.30;;
55316;SDS011;41178;48.956;8.130;2023-07-09T23:16:40;6.25;;;3.63;;
55316;SDS011;41178;48.956;8.130;2023-07-09T23:21:46;6.63;;;3.78;;
55316;SDS011;41178;48.956;8.130;2023-07-09T23:26:49;9.18;;;3.25;;
55316;SDS011;41178;48.956;8.130;2023-07-09T23:31:52;7.65;;;3.53;;
55316;SDS011;41178;48.956;8.130;2023-07-09T23:36:54;6.95;;;3.67;;
55316;SDS011;41178;48.956;8.130;2023-07-09T23:41:56;6.95;;;3.90;;
55316;SDS011;41178;48.956;8.130;2023-07-09T23:46:58;5.65;;;3.60;;
55316;SDS011;41178;48.956;8.130;2023-07-09T23:52:00;8.88;;;3.72;;
55316;SDS011;41178;48.956;8.130;2023-07-09T23:57:03;5.60;;;3.45;;
